Thunder radar more information blitzortung!


Radar de pluja more information rain snow radar


Visita la nostra xarxa de llocs de meteo:

Template documentation
and downloads

And another site



No particular awareness of the weather is required.    There are no Weather-warnings

Pagina Historial Weather Underground text

Diari Resum Octubre 30, 2017 Unitats:  Tant    Imperial   Mètric
« Previous Dia
SegĂźent Dia »
Diari Setmana Mensual Anual Personalitzada
  Maxima: Minima: Media:
Temperatura: 65.3 °F /  18.5 °C 49.3 °F /  9.6 °C 59.9 °F /  15.5 °C
Punt de rosada: 50.2 °F /  10.1 °C 39.7 °F /  4.3 °C 48.6 °F /  9.2 °C
Humitat: 79 % 55 % 67 %
Wind Speed: 10.4 mph /  16.7 km/h - 2.9 mph /  4.7 km/h
RĂ fegues de vent: 10.4 mph /  16.7 km/h - -
Vent:- - East
Pression baro: 30.2 in /  1021.9 hPa 30 in /  1015.8 hPa -
Precipitacions: 0 in /  0.0 mm    
Historical Graphs
 
 
Dades de taula per Octubre 30, 2017
Temps Temperatura Punt de rosada Pression baro Vent Wind Speed RĂ fegues de vent Humitat Rainfall Rate (Hourly)
00:01 55.6 °F /  13.1 °C 40.1 °F /  4.5 °C 30 in /  1016.8 hPa Calm     56 % 0 in /  0.0 mm
00:06 55.6 °F /  13.1 °C 39.7 °F /  4.3 °C 30 in /  1016.8 hPa WNW 1.2 mph /  1.9 km/h 1.2 mph /  1.9 km/h 55 % 0 in /  0.0 mm
01:35 49.3 °F /  9.6 °C 41 °F /  5.0 °C 30.1 in /  1017.8 hPa Calm   1 mph /  1.6 km/h 73 % 0 in /  0.0 mm
01:45 50 °F /  10.0 °C 41.7 °F /  5.4 °C 30.1 in /  1017.8 hPa NW 1 mph /  1.6 km/h 1 mph /  1.6 km/h 73 % 0 in /  0.0 mm
01:55 50.9 °F /  10.5 °C 42.6 °F /  5.9 °C 30 in /  1016.8 hPa North 1 mph /  1.6 km/h 4 mph /  6.4 km/h 73 % 0 in /  0.0 mm
02:05 51.8 °F /  11.0 °C 43.3 °F /  6.3 °C 30 in /  1016.8 hPa NE 1 mph /  1.6 km/h 2 mph /  3.2 km/h 73 % 0 in /  0.0 mm
02:15 52.2 °F /  11.2 °C 43.3 °F /  6.3 °C 30.1 in /  1017.8 hPa NE 3 mph /  4.8 km/h 4 mph /  6.4 km/h 72 % 0 in /  0.0 mm
02:25 52.9 °F /  11.6 °C 44.1 °F /  6.7 °C 30.1 in /  1017.8 hPa NE 2 mph /  3.2 km/h 3 mph /  4.8 km/h 72 % 0 in /  0.0 mm
02:35 53.6 °F /  12.0 °C 44.4 °F /  6.9 °C 30.1 in /  1017.8 hPa NE 3 mph /  4.8 km/h 4 mph /  6.4 km/h 71 % 0 in /  0.0 mm
02:45 54 °F /  12.2 °C 44.8 °F /  7.1 °C 30.1 in /  1017.8 hPa NE 5 mph /  8.0 km/h 6 mph /  9.7 km/h 71 % 0 in /  0.0 mm
02:55 54.9 °F /  12.7 °C 45.3 °F /  7.4 °C 30.1 in /  1017.8 hPa NNE 5 mph /  8.0 km/h 6 mph /  9.7 km/h 70 % 0 in /  0.0 mm
03:05 55 °F /  12.8 °C 45.3 °F /  7.4 °C 30.1 in /  1017.8 hPa NE 3 mph /  4.8 km/h 6 mph /  9.7 km/h 70 % 0 in /  0.0 mm
03:15 55.6 °F /  13.1 °C 45.7 °F /  7.6 °C 30.1 in /  1017.8 hPa NE 3 mph /  4.8 km/h 6 mph /  9.7 km/h 69 % 0 in /  0.0 mm
03:25 55.9 °F /  13.3 °C 45.9 °F /  7.7 °C 30.1 in /  1017.8 hPa NNE 3 mph /  4.8 km/h 6 mph /  9.7 km/h 69 % 0 in /  0.0 mm
03:35 56.5 °F /  13.6 °C 46 °F /  7.8 °C 30.1 in /  1017.8 hPa NNE 5 mph /  8.0 km/h 5 mph /  8.0 km/h 68 % 0 in /  0.0 mm
09:45 57 °F /  13.9 °C 46.6 °F /  8.1 °C 30.1 in /  1017.8 hPa ENE 4.6 mph /  7.4 km/h 4.6 mph /  7.4 km/h 68 % 0 in /  0.0 mm
09:50 57 °F /  13.9 °C 46.6 °F /  8.1 °C 30.1 in /  1017.8 hPa NE 5.9 mph /  9.5 km/h 5.9 mph /  9.5 km/h 68 % 0 in /  0.0 mm
09:55 57.2 °F /  14.0 °C 46.2 °F /  7.9 °C 30.1 in /  1017.8 hPa NNE 4.6 mph /  7.4 km/h 4.6 mph /  7.4 km/h 67 % 0 in /  0.0 mm
10:00 57.2 °F /  14.0 °C 46.2 °F /  7.9 °C 30.1 in /  1017.8 hPa NE 8.1 mph /  13.0 km/h 8.1 mph /  13.0 km/h 67 % 0 in /  0.0 mm
10:05 57 °F /  13.9 °C 46.2 °F /  7.9 °C 30.1 in /  1017.8 hPa ENE 6.9 mph /  11.1 km/h 6.9 mph /  11.1 km/h 67 % 0 in /  0.0 mm
10:10 57.9 °F /  14.4 °C 46.9 °F /  8.3 °C 30.1 in /  1017.8 hPa East 2.6 mph /  4.2 km/h 3.1 mph /  5.0 km/h 67 % 0 in /  0.0 mm
10:15 57.9 °F /  14.4 °C 46.6 °F /  8.1 °C 30.1 in /  1017.8 hPa NNE 6.9 mph /  11.1 km/h 6.9 mph /  11.1 km/h 66 % 0 in /  0.0 mm
10:20 57.7 °F /  14.3 °C 46.6 °F /  8.1 °C 30.1 in /  1017.8 hPa ENE 6.9 mph /  11.1 km/h 6.9 mph /  11.1 km/h 66 % 0 in /  0.0 mm
10:25 57.6 °F /  14.2 °C 46.2 °F /  7.9 °C 30.1 in /  1017.8 hPa North 6.9 mph /  11.1 km/h 6.9 mph /  11.1 km/h 66 % 0 in /  0.0 mm
10:30 58.1 °F /  14.5 °C 46.8 °F /  8.2 °C 30.1 in /  1017.8 hPa NNE 4 mph /  6.4 km/h 4 mph /  6.4 km/h 66 % 0 in /  0.0 mm
10:35 58.3 °F /  14.6 °C 46.6 °F /  8.1 °C 30.1 in /  1017.8 hPa ENE 6.9 mph /  11.1 km/h 6.9 mph /  11.1 km/h 65 % 0 in /  0.0 mm
10:40 58.8 °F /  14.9 °C 47.5 °F /  8.6 °C 30.1 in /  1017.8 hPa NNE 4 mph /  6.4 km/h 4 mph /  6.4 km/h 66 % 0 in /  0.0 mm
10:45 58.1 °F /  14.5 °C 46.4 °F /  8.0 °C 30.1 in /  1017.8 hPa ENE 6.9 mph /  11.1 km/h 6.9 mph /  11.1 km/h 65 % 0 in /  0.0 mm
10:55 59.5 °F /  15.3 °C 47.8 °F /  8.8 °C 30.1 in /  1017.8 hPa NE 3.5 mph /  5.6 km/h 3.5 mph /  5.6 km/h 65 % 0 in /  0.0 mm
11:00 60.1 °F /  15.6 °C 48.4 °F /  9.1 °C 30.1 in /  1017.8 hPa NNW 3.5 mph /  5.6 km/h 3.5 mph /  5.6 km/h 65 % 0 in /  0.0 mm
11:05 60.4 °F /  15.8 °C 48.6 °F /  9.2 °C 30.1 in /  1017.8 hPa East 3.5 mph /  5.6 km/h 3.5 mph /  5.6 km/h 65 % 0 in /  0.0 mm
11:10 60.4 °F /  15.8 °C 48.2 °F /  9.0 °C 30 in /  1016.8 hPa North 5.8 mph /  9.3 km/h 5.8 mph /  9.3 km/h 64 % 0 in /  0.0 mm
11:15 60.6 °F /  15.9 °C 48.4 °F /  9.1 °C 30 in /  1016.8 hPa ENE 2.3 mph /  3.7 km/h 2.3 mph /  3.7 km/h 64 % 0 in /  0.0 mm
11:20 60.6 °F /  15.9 °C 48.4 °F /  9.1 °C 30 in /  1016.8 hPa NNE 4.6 mph /  7.4 km/h 4.6 mph /  7.4 km/h 64 % 0 in /  0.0 mm
11:25 60.6 °F /  15.9 °C 48.4 °F /  9.1 °C 30.1 in /  1017.8 hPa WNW 4.6 mph /  7.4 km/h 4.6 mph /  7.4 km/h 64 % 0 in /  0.0 mm
11:30 60.8 °F /  16.0 °C 48 °F /  8.9 °C 30.1 in /  1017.8 hPa ENE 4 mph /  6.4 km/h 4 mph /  6.4 km/h 63 % 0 in /  0.0 mm
11:35 60.6 °F /  15.9 °C 47.8 °F /  8.8 °C 30.1 in /  1017.8 hPa ENE 5.8 mph /  9.3 km/h 5.8 mph /  9.3 km/h 63 % 0 in /  0.0 mm
11:40 60.3 °F /  15.7 °C 47.7 °F /  8.7 °C 30.1 in /  1017.8 hPa ENE 5.8 mph /  9.3 km/h 5.8 mph /  9.3 km/h 63 % 0 in /  0.0 mm
11:45 60.6 °F /  15.9 °C 47.8 °F /  8.8 °C 30.1 in /  1017.8 hPa NE 6.4 mph /  10.3 km/h 6.4 mph /  10.3 km/h 63 % 0 in /  0.0 mm
11:50 60.4 °F /  15.8 °C 47.8 °F /  8.8 °C 30.1 in /  1017.8 hPa NE 5.9 mph /  9.5 km/h 5.9 mph /  9.5 km/h 63 % 0 in /  0.0 mm
11:55 60.4 °F /  15.8 °C 47.8 °F /  8.8 °C 30.1 in /  1017.8 hPa ESE 7.6 mph /  12.2 km/h 7.6 mph /  12.2 km/h 63 % 0 in /  0.0 mm
12:00 60.4 °F /  15.8 °C 47.8 °F /  8.8 °C 30.1 in /  1017.8 hPa North 6.9 mph /  11.1 km/h 6.9 mph /  11.1 km/h 63 % 0 in /  0.0 mm
12:05 60.6 °F /  15.9 °C 47.8 °F /  8.8 °C 30.1 in /  1017.8 hPa ENE 6.9 mph /  11.1 km/h 6.9 mph /  11.1 km/h 63 % 0 in /  0.0 mm
12:10 61.5 °F /  16.4 °C 48.7 °F /  9.3 °C 30.1 in /  1017.8 hPa ENE 5.4 mph /  8.7 km/h 5.4 mph /  8.7 km/h 63 % 0 in /  0.0 mm
12:15 62.1 °F /  16.7 °C 49.3 °F /  9.6 °C 30.1 in /  1017.8 hPa NNE 3.5 mph /  5.6 km/h 3.5 mph /  5.6 km/h 63 % 0 in /  0.0 mm
12:20 62.1 °F /  16.7 °C 49.3 °F /  9.6 °C 30.1 in /  1017.8 hPa NE 3.5 mph /  5.6 km/h 3.5 mph /  5.6 km/h 63 % 0 in /  0.0 mm
12:25 62.4 °F /  16.9 °C 49.3 °F /  9.6 °C 30.1 in /  1017.8 hPa NE 3.1 mph /  5.0 km/h 3.1 mph /  5.0 km/h 62 % 0 in /  0.0 mm
12:30 62.4 °F /  16.9 °C 49.3 °F /  9.6 °C 30.1 in /  1017.8 hPa ENE 5.8 mph /  9.3 km/h 5.8 mph /  9.3 km/h 62 % 0 in /  0.0 mm
12:35 62.2 °F /  16.8 °C 49.1 °F /  9.5 °C 30.1 in /  1017.8 hPa ENE 5.8 mph /  9.3 km/h 5.8 mph /  9.3 km/h 62 % 0 in /  0.0 mm
12:40 61.9 °F /  16.6 °C 48.4 °F /  9.1 °C 30.1 in /  1017.8 hPa NNW 6.9 mph /  11.1 km/h 6.9 mph /  11.1 km/h 61 % 0 in /  0.0 mm
12:45 61.7 °F /  16.5 °C 48 °F /  8.9 °C 30.1 in /  1017.8 hPa NNE 10.4 mph /  16.7 km/h 10.4 mph /  16.7 km/h 61 % 0 in /  0.0 mm
12:50 62.2 °F /  16.8 °C 48.6 °F /  9.2 °C 30.1 in /  1017.8 hPa NNE 6.4 mph /  10.3 km/h 6.4 mph /  10.3 km/h 61 % 0 in /  0.0 mm
12:55 61.7 °F /  16.5 °C 48 °F /  8.9 °C 30.1 in /  1017.8 hPa North 8.1 mph /  13.0 km/h 8.1 mph /  13.0 km/h 61 % 0 in /  0.0 mm
13:00 62.1 °F /  16.7 °C 48.4 °F /  9.1 °C 30.1 in /  1017.8 hPa East 9.2 mph /  14.8 km/h 9.2 mph /  14.8 km/h 61 % 0 in /  0.0 mm
13:05 62.1 °F /  16.7 °C 48.4 °F /  9.1 °C 30.1 in /  1017.8 hPa NW 5.8 mph /  9.3 km/h 6 mph /  9.7 km/h 61 % 0 in /  0.0 mm
13:10 61.9 °F /  16.6 °C 48.4 °F /  9.1 °C 30.1 in /  1017.8 hPa ENE 10.4 mph /  16.7 km/h 10.4 mph /  16.7 km/h 61 % 0 in /  0.0 mm
13:15 61.9 °F /  16.6 °C 47.8 °F /  8.8 °C 30.1 in /  1017.8 hPa North 6.9 mph /  11.1 km/h 6.9 mph /  11.1 km/h 60 % 0 in /  0.0 mm
13:20 62.6 °F /  17.0 °C 48.6 °F /  9.2 °C 30.1 in /  1017.8 hPa NNW 4.6 mph /  7.4 km/h 4.6 mph /  7.4 km/h 60 % 0 in /  0.0 mm
13:30 62.6 °F /  17.0 °C 48 °F /  8.9 °C 30 in /  1016.8 hPa North 6.9 mph /  11.1 km/h 6.9 mph /  11.1 km/h 59 % 0 in /  0.0 mm
13:35 63 °F /  17.2 °C 48.9 °F /  9.4 °C 30 in /  1016.8 hPa NNE 3.5 mph /  5.6 km/h 3.5 mph /  5.6 km/h 60 % 0 in /  0.0 mm
13:40 63 °F /  17.2 °C 48.9 °F /  9.4 °C 30 in /  1016.8 hPa ENE 10.2 mph /  16.4 km/h 10.2 mph /  16.4 km/h 60 % 0 in /  0.0 mm
13:42 62.8 °F /  17.1 °C 48.2 °F /  9.0 °C 30 in /  1016.8 hPa NE 10.4 mph /  16.7 km/h 10.4 mph /  16.7 km/h 59 % 0 in /  0.0 mm
13:47 63 °F /  17.2 °C 48.4 °F /  9.1 °C 30 in /  1016.8 hPa ENE 4.6 mph /  7.4 km/h 4.6 mph /  7.4 km/h 59 % 0 in /  0.0 mm
13:52 63.3 °F /  17.4 °C 48.7 °F /  9.3 °C 30 in /  1015.8 hPa NNE 4.9 mph /  7.9 km/h 4.9 mph /  7.9 km/h 59 % 0 in /  0.0 mm
13:57 63.3 °F /  17.4 °C 48.7 °F /  9.3 °C 30 in /  1015.8 hPa NNE 4.6 mph /  7.4 km/h 4.6 mph /  7.4 km/h 59 % 0 in /  0.0 mm
14:02 63.5 °F /  17.5 °C 48.9 °F /  9.4 °C 30 in /  1015.8 hPa NNE 4.6 mph /  7.4 km/h 4.6 mph /  7.4 km/h 59 % 0 in /  0.0 mm
14:07 63.7 °F /  17.6 °C 49.1 °F /  9.5 °C 30 in /  1016.8 hPa NNE 4.6 mph /  7.4 km/h 4.6 mph /  7.4 km/h 59 % 0 in /  0.0 mm
14:12 63.5 °F /  17.5 °C 48.6 °F /  9.2 °C 30 in /  1016.8 hPa ENE 8.1 mph /  13.0 km/h 8.1 mph /  13.0 km/h 58 % 0 in /  0.0 mm
14:17 63.7 °F /  17.6 °C 48.6 °F /  9.2 °C 30 in /  1016.8 hPa ENE 5.8 mph /  9.3 km/h 5.8 mph /  9.3 km/h 58 % 0 in /  0.0 mm
14:22 63.9 °F /  17.7 °C 48.7 °F /  9.3 °C 30 in /  1015.8 hPa NNE 5.8 mph /  9.3 km/h 5.8 mph /  9.3 km/h 58 % 0 in /  0.0 mm
14:27 63.9 °F /  17.7 °C 48.7 °F /  9.3 °C 30 in /  1015.8 hPa NNE 5.8 mph /  9.3 km/h 5.8 mph /  9.3 km/h 58 % 0 in /  0.0 mm
14:32 64.2 °F /  17.9 °C 49.1 °F /  9.5 °C 30 in /  1015.8 hPa NNE 3.5 mph /  5.6 km/h 3.5 mph /  5.6 km/h 58 % 0 in /  0.0 mm
14:37 64.4 °F /  18.0 °C 49.3 °F /  9.6 °C 30 in /  1015.8 hPa ENE 5.8 mph /  9.3 km/h 5.8 mph /  9.3 km/h 58 % 0 in /  0.0 mm
14:42 64.4 °F /  18.0 °C 49.3 °F /  9.6 °C 30 in /  1015.8 hPa NE 5.4 mph /  8.7 km/h 5.4 mph /  8.7 km/h 58 % 0 in /  0.0 mm
14:47 64.6 °F /  18.1 °C 49.5 °F /  9.7 °C 30 in /  1015.8 hPa NNE 4.6 mph /  7.4 km/h 4.6 mph /  7.4 km/h 58 % 0 in /  0.0 mm
14:52 64.6 °F /  18.1 °C 48.9 °F /  9.4 °C 30 in /  1015.8 hPa NNE 5.4 mph /  8.7 km/h 5.4 mph /  8.7 km/h 57 % 0 in /  0.0 mm
14:57 64.6 °F /  18.1 °C 48.9 °F /  9.4 °C 30 in /  1015.8 hPa NE 6.9 mph /  11.1 km/h 6.9 mph /  11.1 km/h 57 % 0 in /  0.0 mm
15:02 64.4 °F /  18.0 °C 48.7 °F /  9.3 °C 30 in /  1015.8 hPa North 4.6 mph /  7.4 km/h 4.6 mph /  7.4 km/h 57 % 0 in /  0.0 mm
15:07 64.6 °F /  18.1 °C 48.9 °F /  9.4 °C 30 in /  1015.8 hPa NNE 4.6 mph /  7.4 km/h 4.6 mph /  7.4 km/h 57 % 0 in /  0.0 mm
15:12 64.6 °F /  18.1 °C 48.9 °F /  9.4 °C 30 in /  1015.8 hPa West 5.8 mph /  9.3 km/h 5.8 mph /  9.3 km/h 57 % 0 in /  0.0 mm
15:17 64.8 °F /  18.2 °C 49.3 °F /  9.6 °C 30 in /  1015.8 hPa North 5.8 mph /  9.3 km/h 5.8 mph /  9.3 km/h 57 % 0 in /  0.0 mm
15:22 64.8 °F /  18.2 °C 49.3 °F /  9.6 °C 30 in /  1015.8 hPa NW 2.6 mph /  4.2 km/h 2.6 mph /  4.2 km/h 57 % 0 in /  0.0 mm
15:27 64.9 °F /  18.3 °C 49.3 °F /  9.6 °C 30 in /  1015.8 hPa ENE 4.6 mph /  7.4 km/h 4.6 mph /  7.4 km/h 57 % 0 in /  0.0 mm
15:32 64.9 °F /  18.3 °C 49.3 °F /  9.6 °C 30 in /  1015.8 hPa NNE 4 mph /  6.4 km/h 4 mph /  6.4 km/h 57 % 0 in /  0.0 mm
15:37 65.1 °F /  18.4 °C 49.5 °F /  9.7 °C 30 in /  1015.8 hPa NNE 3.5 mph /  5.6 km/h 3.5 mph /  5.6 km/h 57 % 0 in /  0.0 mm
15:42 65.1 °F /  18.4 °C 49.5 °F /  9.7 °C 30 in /  1015.8 hPa NNE 2.3 mph /  3.7 km/h 2.3 mph /  3.7 km/h 57 % 0 in /  0.0 mm
15:47 65.3 °F /  18.5 °C 49.6 °F /  9.8 °C 30 in /  1015.8 hPa ESE 3.5 mph /  5.6 km/h 3.5 mph /  5.6 km/h 57 % 0 in /  0.0 mm
15:52 65.3 °F /  18.5 °C 49.6 °F /  9.8 °C 30 in /  1015.8 hPa ENE 3.5 mph /  5.6 km/h 3.5 mph /  5.6 km/h 57 % 0 in /  0.0 mm
15:57 65.1 °F /  18.4 °C 49.5 °F /  9.7 °C 30 in /  1015.8 hPa NE 4.3 mph /  6.9 km/h 4.3 mph /  6.9 km/h 57 % 0 in /  0.0 mm
16:02 65.1 °F /  18.4 °C 48.9 °F /  9.4 °C 30 in /  1015.8 hPa North 3.5 mph /  5.6 km/h 3.5 mph /  5.6 km/h 56 % 0 in /  0.0 mm
16:07 65.1 °F /  18.4 °C 48.9 °F /  9.4 °C 30 in /  1015.8 hPa NNE 3.5 mph /  5.6 km/h 3.5 mph /  5.6 km/h 56 % 0 in /  0.0 mm
16:12 65.3 °F /  18.5 °C 49.6 °F /  9.8 °C 30 in /  1015.8 hPa NW 1.4 mph /  2.3 km/h 1.4 mph /  2.3 km/h 57 % 0 in /  0.0 mm
16:17 65.1 °F /  18.4 °C 48.9 °F /  9.4 °C 30 in /  1015.8 hPa NE 4.6 mph /  7.4 km/h 4.6 mph /  7.4 km/h 56 % 0 in /  0.0 mm
16:22 65.1 °F /  18.4 °C 49.5 °F /  9.7 °C 30 in /  1016.8 hPa NNE 2.3 mph /  3.7 km/h 2.3 mph /  3.7 km/h 57 % 0 in /  0.0 mm
16:27 65.1 °F /  18.4 °C 48.9 °F /  9.4 °C 30 in /  1016.8 hPa ENE 2.9 mph /  4.7 km/h 2.9 mph /  4.7 km/h 56 % 0 in /  0.0 mm
16:32 64.9 °F /  18.3 °C 48.9 °F /  9.4 °C 30 in /  1016.8 hPa ENE 3.5 mph /  5.6 km/h 3.5 mph /  5.6 km/h 56 % 0 in /  0.0 mm
16:37 64.8 °F /  18.2 °C 49.3 °F /  9.6 °C 30 in /  1015.8 hPa NE 3.5 mph /  5.6 km/h 3.5 mph /  5.6 km/h 57 % 0 in /  0.0 mm
16:42 64.8 °F /  18.2 °C 49.3 °F /  9.6 °C 30 in /  1015.8 hPa NNE 3.3 mph /  5.3 km/h 3.3 mph /  5.3 km/h 57 % 0 in /  0.0 mm
16:52 64.6 °F /  18.1 °C 48.9 °F /  9.4 °C 30 in /  1016.8 hPa East 4.6 mph /  7.4 km/h 4.6 mph /  7.4 km/h 57 % 0 in /  0.0 mm
16:57 64.4 °F /  18.0 °C 49.3 °F /  9.6 °C 30 in /  1016.8 hPa ENE 3.5 mph /  5.6 km/h 3.5 mph /  5.6 km/h 58 % 0 in /  0.0 mm
17:02 64 °F /  17.8 °C 49.5 °F /  9.7 °C 30 in /  1016.8 hPa SE 5.8 mph /  9.3 km/h 5.8 mph /  9.3 km/h 59 % 0 in /  0.0 mm
17:07 63.7 °F /  17.6 °C 49.5 °F /  9.7 °C 30 in /  1016.8 hPa ESE 4.9 mph /  7.9 km/h 4.9 mph /  7.9 km/h 60 % 0 in /  0.0 mm
17:12 63.7 °F /  17.6 °C 50 °F /  10.0 °C 30 in /  1016.8 hPa SE 5.8 mph /  9.3 km/h 5.8 mph /  9.3 km/h 61 % 0 in /  0.0 mm
17:17 63.3 °F /  17.4 °C 49.6 °F /  9.8 °C 30 in /  1016.8 hPa ESE 5.8 mph /  9.3 km/h 5.8 mph /  9.3 km/h 61 % 0 in /  0.0 mm
17:22 63 °F /  17.2 °C 49.6 °F /  9.8 °C 30 in /  1016.8 hPa ESE 6.9 mph /  11.1 km/h 6.9 mph /  11.1 km/h 62 % 0 in /  0.0 mm
17:27 62.8 °F /  17.1 °C 49.6 °F /  9.8 °C 30 in /  1016.8 hPa ESE 3.5 mph /  5.6 km/h 3.5 mph /  5.6 km/h 62 % 0 in /  0.0 mm
17:32 62.8 °F /  17.1 °C 50 °F /  10.0 °C 30 in /  1016.8 hPa ESE 4.6 mph /  7.4 km/h 4.6 mph /  7.4 km/h 63 % 0 in /  0.0 mm
17:42 62.6 °F /  17.0 °C 49.8 °F /  9.9 °C 30.1 in /  1017.8 hPa ESE 4.6 mph /  7.4 km/h 4.6 mph /  7.4 km/h 63 % 0 in /  0.0 mm
17:47 62.6 °F /  17.0 °C 49.8 °F /  9.9 °C 30.1 in /  1017.8 hPa ENE 2.3 mph /  3.7 km/h 2.3 mph /  3.7 km/h 63 % 0 in /  0.0 mm
17:52 62.4 °F /  16.9 °C 50.2 °F /  10.1 °C 30.1 in /  1017.8 hPa East 3.8 mph /  6.1 km/h 3.8 mph /  6.1 km/h 64 % 0 in /  0.0 mm
17:57 62.4 °F /  16.9 °C 50.2 °F /  10.1 °C 30.1 in /  1017.8 hPa ESE 2.9 mph /  4.7 km/h 2.9 mph /  4.7 km/h 64 % 0 in /  0.0 mm
18:02 62.4 °F /  16.9 °C 50.2 °F /  10.1 °C 30.1 in /  1017.8 hPa ESE 3.5 mph /  5.6 km/h 3.5 mph /  5.6 km/h 64 % 0 in /  0.0 mm
18:07 62.2 °F /  16.8 °C 49.8 °F /  9.9 °C 30.1 in /  1017.8 hPa East 3.5 mph /  5.6 km/h 3.5 mph /  5.6 km/h 64 % 0 in /  0.0 mm
18:12 62.2 °F /  16.8 °C 49.8 °F /  9.9 °C 30.1 in /  1017.8 hPa ESE 4.6 mph /  7.4 km/h 4.6 mph /  7.4 km/h 64 % 0 in /  0.0 mm
18:15 56.7 °F /  13.7 °C 49.3 °F /  9.6 °C 30.1 in /  1019.9 hPa Calm   1 mph /  1.6 km/h 76 % 0 in /  0.0 mm
18:17 62.2 °F /  16.8 °C 49.8 °F /  9.9 °C 30.1 in /  1017.8 hPa ENE 2.3 mph /  3.7 km/h 2.3 mph /  3.7 km/h 64 % 0 in /  0.0 mm
18:22 62.1 °F /  16.7 °C 49.6 °F /  9.8 °C 30.1 in /  1017.8 hPa ENE 3.5 mph /  5.6 km/h 3.5 mph /  5.6 km/h 64 % 0 in /  0.0 mm
18:25 56.5 °F /  13.6 °C 49.5 °F /  9.7 °C 30.1 in /  1019.9 hPa Calm   2 mph /  3.2 km/h 77 % 0 in /  0.0 mm
18:27 62.1 °F /  16.7 °C 49.6 °F /  9.8 °C 30.1 in /  1017.8 hPa ENE 2.6 mph /  4.2 km/h 2.6 mph /  4.2 km/h 64 % 0 in /  0.0 mm
18:32 62.1 °F /  16.7 °C 49.6 °F /  9.8 °C 30.1 in /  1017.8 hPa ENE 3.5 mph /  5.6 km/h 3.5 mph /  5.6 km/h 64 % 0 in /  0.0 mm
18:35 56.7 °F /  13.7 °C 49.5 °F /  9.7 °C 30.1 in /  1019.9 hPa NNE 2 mph /  3.2 km/h 2 mph /  3.2 km/h 77 % 0 in /  0.0 mm
18:37 61.9 °F /  16.6 °C 49.6 °F /  9.8 °C 30.1 in /  1017.8 hPa East 2.6 mph /  4.2 km/h 2.6 mph /  4.2 km/h 64 % 0 in /  0.0 mm
18:42 61.9 °F /  16.6 °C 49.6 °F /  9.8 °C 30.1 in /  1017.8 hPa ENE 3.5 mph /  5.6 km/h 3.5 mph /  5.6 km/h 64 % 0 in /  0.0 mm
18:45 56.7 °F /  13.7 °C 49.5 °F /  9.7 °C 30.1 in /  1019.9 hPa NNE 2 mph /  3.2 km/h 3 mph /  4.8 km/h 77 % 0 in /  0.0 mm
18:47 61.9 °F /  16.6 °C 50 °F /  10.0 °C 30.1 in /  1017.8 hPa NE 2.3 mph /  3.7 km/h 2.3 mph /  3.7 km/h 65 % 0 in /  0.0 mm
18:52 61.9 °F /  16.6 °C 50 °F /  10.0 °C 30.1 in /  1017.8 hPa East 4.6 mph /  7.4 km/h 4.6 mph /  7.4 km/h 65 % 0 in /  0.0 mm
18:55 56.3 °F /  13.5 °C 48.6 °F /  9.2 °C 30.1 in /  1019.9 hPa NE 1 mph /  1.6 km/h 3 mph /  4.8 km/h 75 % 0 in /  0.0 mm
18:57 61.9 °F /  16.6 °C 50 °F /  10.0 °C 30.1 in /  1017.8 hPa ENE 2.3 mph /  3.7 km/h 2.3 mph /  3.7 km/h 65 % 0 in /  0.0 mm
19:02 61.9 °F /  16.6 °C 50 °F /  10.0 °C 30.1 in /  1017.8 hPa ENE 1.2 mph /  1.9 km/h 1.2 mph /  1.9 km/h 65 % 0 in /  0.0 mm
19:05 56.1 °F /  13.4 °C 48.4 °F /  9.1 °C 30.1 in /  1019.9 hPa Calm   2 mph /  3.2 km/h 75 % 0 in /  0.0 mm
19:07 61.9 °F /  16.6 °C 50 °F /  10.0 °C 30.1 in /  1018.8 hPa ENE 1.2 mph /  1.9 km/h 1.2 mph /  1.9 km/h 65 % 0 in /  0.0 mm
19:12 61.9 °F /  16.6 °C 50 °F /  10.0 °C 30.1 in /  1018.8 hPa Calm     65 % 0 in /  0.0 mm
19:15 56.1 °F /  13.4 °C 48.4 °F /  9.1 °C 30.1 in /  1019.9 hPa NNE 1 mph /  1.6 km/h 3 mph /  4.8 km/h 75 % 0 in /  0.0 mm
19:17 61.7 °F /  16.5 °C 49.8 °F /  9.9 °C 30.1 in /  1018.8 hPa ESE 1.2 mph /  1.9 km/h   65 % 0 in /  0.0 mm
19:22 61.7 °F /  16.5 °C 50.2 °F /  10.1 °C 30.1 in /  1018.8 hPa Calm     66 % 0 in /  0.0 mm
19:25 55.9 °F /  13.3 °C 48 °F /  8.9 °C 30.1 in /  1019.9 hPa NNE 1 mph /  1.6 km/h 2 mph /  3.2 km/h 75 % 0 in /  0.0 mm
19:27 61.5 °F /  16.4 °C 50.2 °F /  10.1 °C 30.1 in /  1018.8 hPa Calm     66 % 0 in /  0.0 mm
19:32 61.3 °F /  16.3 °C 49.8 °F /  9.9 °C 30.1 in /  1018.8 hPa Calm     66 % 0 in /  0.0 mm
19:35 55.9 °F /  13.3 °C 48 °F /  8.9 °C 30.1 in /  1019.9 hPa Calm   2 mph /  3.2 km/h 75 % 0 in /  0.0 mm
19:37 61.2 °F /  16.2 °C 49.6 °F /  9.8 °C 30.1 in /  1018.8 hPa Calm     66 % 0 in /  0.0 mm
19:42 61 °F /  16.1 °C 49.5 °F /  9.7 °C 30.1 in /  1018.8 hPa Calm     66 % 0 in /  0.0 mm
19:45 55.8 °F /  13.2 °C 48 °F /  8.9 °C 30.1 in /  1019.9 hPa NE 1 mph /  1.6 km/h 2 mph /  3.2 km/h 75 % 0 in /  0.0 mm
19:47 61 °F /  16.1 °C 49.8 °F /  9.9 °C 30.1 in /  1018.8 hPa Calm     67 % 0 in /  0.0 mm
19:52 60.8 °F /  16.0 °C 49.8 °F /  9.9 °C 30.1 in /  1018.8 hPa Calm     67 % 0 in /  0.0 mm
19:55 55.8 °F /  13.2 °C 48 °F /  8.9 °C 30.1 in /  1019.9 hPa Calm   2 mph /  3.2 km/h 75 % 0 in /  0.0 mm
19:57 60.8 °F /  16.0 °C 49.8 °F /  9.9 °C 30.1 in /  1018.8 hPa Calm     67 % 0 in /  0.0 mm
20:02 60.6 °F /  15.9 °C 49.6 °F /  9.8 °C 30.1 in /  1018.8 hPa Calm     67 % 0 in /  0.0 mm
20:05 55.9 °F /  13.3 °C 48 °F /  8.9 °C 30.1 in /  1019.9 hPa West 1 mph /  1.6 km/h 1 mph /  1.6 km/h 75 % 0 in /  0.0 mm
20:07 60.4 °F /  15.8 °C 49.8 °F /  9.9 °C 30.1 in /  1018.8 hPa Calm     68 % 0 in /  0.0 mm
20:12 60.3 °F /  15.7 °C 49.6 °F /  9.8 °C 30.1 in /  1018.8 hPa South 0.9 mph /  1.4 km/h   68 % 0 in /  0.0 mm
20:15 55.9 °F /  13.3 °C 48 °F /  8.9 °C 30.1 in /  1019.9 hPa Calm   1 mph /  1.6 km/h 75 % 0 in /  0.0 mm
20:17 60.1 °F /  15.6 °C 49.5 °F /  9.7 °C 30.1 in /  1018.8 hPa Calm     68 % 0 in /  0.0 mm
20:22 59.9 °F /  15.5 °C 48.9 °F /  9.4 °C 30.1 in /  1018.8 hPa WNW 2.2 mph /  3.5 km/h 2.2 mph /  3.5 km/h 67 % 0 in /  0.0 mm
20:25 56.1 °F /  13.4 °C 48.7 °F /  9.3 °C 30.1 in /  1019.9 hPa Calm   2 mph /  3.2 km/h 76 % 0 in /  0.0 mm
20:27 59.9 °F /  15.5 °C 49.3 °F /  9.6 °C 30.1 in /  1018.8 hPa WNW 1.2 mph /  1.9 km/h 1.2 mph /  1.9 km/h 68 % 0 in /  0.0 mm
20:32 59.7 °F /  15.4 °C 49.1 °F /  9.5 °C 30.1 in /  1018.8 hPa Calm     68 % 0 in /  0.0 mm
20:35 56.1 °F /  13.4 °C 48.9 °F /  9.4 °C 30.1 in /  1019.9 hPa Calm   2 mph /  3.2 km/h 77 % 0 in /  0.0 mm
20:37 59.7 °F /  15.4 °C 49.1 °F /  9.5 °C 30.1 in /  1019.9 hPa WNW 1.4 mph /  2.3 km/h 1.4 mph /  2.3 km/h 68 % 0 in /  0.0 mm
20:42 59.4 °F /  15.2 °C 49.3 °F /  9.6 °C 30.1 in /  1019.9 hPa WNW 1.6 mph /  2.6 km/h 1.6 mph /  2.6 km/h 69 % 0 in /  0.0 mm
20:45 56.1 °F /  13.4 °C 49.5 °F /  9.7 °C 30.1 in /  1019.9 hPa Calm     78 % 0 in /  0.0 mm
20:47 59.4 °F /  15.2 °C 49.3 °F /  9.6 °C 30.1 in /  1019.9 hPa West 1.2 mph /  1.9 km/h 1.2 mph /  1.9 km/h 69 % 0 in /  0.0 mm
20:52 59.4 °F /  15.2 °C 49.3 °F /  9.6 °C 30.1 in /  1019.9 hPa West 1.2 mph /  1.9 km/h   69 % 0 in /  0.0 mm
20:55 55.9 °F /  13.3 °C 49.3 °F /  9.6 °C 30.1 in /  1019.9 hPa South 1 mph /  1.6 km/h 2 mph /  3.2 km/h 78 % 0 in /  0.0 mm
20:57 59.2 °F /  15.1 °C 48.9 °F /  9.4 °C 30.1 in /  1019.9 hPa Calm     69 % 0 in /  0.0 mm
21:02 59 °F /  15.0 °C 48.7 °F /  9.3 °C 30.1 in /  1019.9 hPa Calm     69 % 0 in /  0.0 mm
21:05 55.9 °F /  13.3 °C 49.3 °F /  9.6 °C 30.1 in /  1019.9 hPa Calm   1 mph /  1.6 km/h 78 % 0 in /  0.0 mm
21:07 59.2 °F /  15.1 °C 48.9 °F /  9.4 °C 30.1 in /  1019.9 hPa WNW 1.4 mph /  2.3 km/h 1.4 mph /  2.3 km/h 69 % 0 in /  0.0 mm
21:12 59.2 °F /  15.1 °C 48.9 °F /  9.4 °C 30.1 in /  1019.9 hPa Calm     69 % 0 in /  0.0 mm
21:15 55.8 °F /  13.2 °C 48.9 °F /  9.4 °C 30.1 in /  1019.9 hPa Calm   1 mph /  1.6 km/h 78 % 0 in /  0.0 mm
21:17 59.2 °F /  15.1 °C 48.9 °F /  9.4 °C 30.1 in /  1019.9 hPa WNW 1.4 mph /  2.3 km/h   69 % 0 in /  0.0 mm
21:22 59 °F /  15.0 °C 48.7 °F /  9.3 °C 30.1 in /  1019.9 hPa WNW 1.4 mph /  2.3 km/h   69 % 0 in /  0.0 mm
21:25 55.6 °F /  13.1 °C 48.7 °F /  9.3 °C 30.1 in /  1019.9 hPa Calm   1 mph /  1.6 km/h 78 % 0 in /  0.0 mm
21:27 59 °F /  15.0 °C 48.7 °F /  9.3 °C 30.1 in /  1019.9 hPa NW 1.2 mph /  1.9 km/h   69 % 0 in /  0.0 mm
21:32 59 °F /  15.0 °C 48.7 °F /  9.3 °C 30.1 in /  1019.9 hPa NW 1.4 mph /  2.3 km/h   69 % 0 in /  0.0 mm
21:35 55.6 °F /  13.1 °C 48.7 °F /  9.3 °C 30.1 in /  1019.9 hPa Calm   2 mph /  3.2 km/h 78 % 0 in /  0.0 mm
21:37 59 °F /  15.0 °C 49.3 °F /  9.6 °C 30.1 in /  1019.9 hPa NW 0.9 mph /  1.4 km/h   70 % 0 in /  0.0 mm
21:42 59 °F /  15.0 °C 49.3 °F /  9.6 °C 30.1 in /  1019.9 hPa NW 0.9 mph /  1.4 km/h   70 % 0 in /  0.0 mm
21:45 55.6 °F /  13.1 °C 48.7 °F /  9.3 °C 30.1 in /  1019.9 hPa ENE 1 mph /  1.6 km/h 2 mph /  3.2 km/h 78 % 0 in /  0.0 mm
21:47 59.2 °F /  15.1 °C 49.5 °F /  9.7 °C 30.1 in /  1019.9 hPa NW 1.2 mph /  1.9 km/h 1.2 mph /  1.9 km/h 70 % 0 in /  0.0 mm
21:52 58.8 °F /  14.9 °C 49.5 °F /  9.7 °C 30.1 in /  1018.8 hPa Calm     71 % 0 in /  0.0 mm
21:55 55.6 °F /  13.1 °C 48.7 °F /  9.3 °C 30.1 in /  1019.9 hPa Calm   1 mph /  1.6 km/h 78 % 0 in /  0.0 mm
21:57 58.6 °F /  14.8 °C 49.3 °F /  9.6 °C 30.1 in /  1018.8 hPa ENE 1.4 mph /  2.3 km/h 1.4 mph /  2.3 km/h 71 % 0 in /  0.0 mm
22:02 58.6 °F /  14.8 °C 49.3 °F /  9.6 °C 30.1 in /  1018.8 hPa ENE 1.2 mph /  1.9 km/h   71 % 0 in /  0.0 mm
22:05 55.6 °F /  13.1 °C 49.3 °F /  9.6 °C 30.1 in /  1019.9 hPa Calm   1 mph /  1.6 km/h 79 % 0 in /  0.0 mm
22:07 58.8 °F /  14.9 °C 49.8 °F /  9.9 °C 30.1 in /  1019.9 hPa Calm     72 % 0 in /  0.0 mm
22:12 58.6 °F /  14.8 °C 49.6 °F /  9.8 °C 30.1 in /  1019.9 hPa ENE 2.3 mph /  3.7 km/h 2.3 mph /  3.7 km/h 72 % 0 in /  0.0 mm
22:15 55.4 °F /  13.0 °C 48.7 °F /  9.3 °C 30.1 in /  1019.9 hPa Calm   1 mph /  1.6 km/h 78 % 0 in /  0.0 mm
22:17 58.5 °F /  14.7 °C 49.5 °F /  9.7 °C 30.1 in /  1019.9 hPa ENE 2.3 mph /  3.7 km/h 2.3 mph /  3.7 km/h 72 % 0 in /  0.0 mm
22:22 58.5 °F /  14.7 °C 49.5 °F /  9.7 °C 30.1 in /  1019.9 hPa ENE 1.2 mph /  1.9 km/h   72 % 0 in /  0.0 mm
22:25 55.4 °F /  13.0 °C 48.7 °F /  9.3 °C 30.2 in /  1020.9 hPa Calm   2 mph /  3.2 km/h 78 % 0 in /  0.0 mm
22:27 58.3 °F /  14.6 °C 49.6 °F /  9.8 °C 30.1 in /  1019.9 hPa ENE 1.2 mph /  1.9 km/h   73 % 0 in /  0.0 mm
22:32 58.5 °F /  14.7 °C 49.8 °F /  9.9 °C 30.1 in /  1019.9 hPa ENE 1.4 mph /  2.3 km/h   73 % 0 in /  0.0 mm
22:35 55.4 °F /  13.0 °C 48.7 °F /  9.3 °C 30.2 in /  1020.9 hPa Calm     78 % 0 in /  0.0 mm
22:37 58.3 °F /  14.6 °C 49.6 °F /  9.8 °C 30.1 in /  1019.9 hPa ENE 1.4 mph /  2.3 km/h 1.4 mph /  2.3 km/h 73 % 0 in /  0.0 mm
22:42 58.1 °F /  14.5 °C 49.5 °F /  9.7 °C 30.1 in /  1019.9 hPa Calm     73 % 0 in /  0.0 mm
22:45 55.6 °F /  13.1 °C 48.7 °F /  9.3 °C 30.2 in /  1020.9 hPa NNE 1 mph /  1.6 km/h 2 mph /  3.2 km/h 78 % 0 in /  0.0 mm
22:47 57.9 °F /  14.4 °C 49.3 °F /  9.6 °C 30.1 in /  1019.9 hPa NE 1.4 mph /  2.3 km/h 1.4 mph /  2.3 km/h 73 % 0 in /  0.0 mm
22:52 57.7 °F /  14.3 °C 49.5 °F /  9.7 °C 30.1 in /  1019.9 hPa NE 1.2 mph /  1.9 km/h   74 % 0 in /  0.0 mm
22:55 55.4 °F /  13.0 °C 48.7 °F /  9.3 °C 30.2 in /  1020.9 hPa Calm   2 mph /  3.2 km/h 78 % 0 in /  0.0 mm
23:05 55.4 °F /  13.0 °C 48.7 °F /  9.3 °C 30.2 in /  1020.9 hPa Calm     78 % 0 in /  0.0 mm
23:07 57.6 °F /  14.2 °C 49.3 °F /  9.6 °C 30.1 in /  1019.9 hPa NE 1.2 mph /  1.9 km/h   74 % 0 in /  0.0 mm
23:12 57.2 °F /  14.0 °C 48.9 °F /  9.4 °C 30.1 in /  1019.9 hPa Calm     74 % 0 in /  0.0 mm
23:15 55.4 °F /  13.0 °C 48 °F /  8.9 °C 30.2 in /  1021.9 hPa West 2 mph /  3.2 km/h 2 mph /  3.2 km/h 76 % 0 in /  0.0 mm
23:17 57.2 °F /  14.0 °C 48.9 °F /  9.4 °C 30.1 in /  1019.9 hPa Calm     74 % 0 in /  0.0 mm
23:22 57.2 °F /  14.0 °C 48.9 °F /  9.4 °C 30.1 in /  1019.9 hPa Calm     74 % 0 in /  0.0 mm
23:25 55.8 °F /  13.2 °C 47.7 °F /  8.7 °C 30.2 in /  1020.9 hPa WSW 3 mph /  4.8 km/h 3 mph /  4.8 km/h 74 % 0 in /  0.0 mm
23:27 57 °F /  13.9 °C 49.3 °F /  9.6 °C 30.1 in /  1019.9 hPa Calm     75 % 0 in /  0.0 mm
23:32 57 °F /  13.9 °C 49.3 °F /  9.6 °C 30.1 in /  1019.9 hPa ENE 2.3 mph /  3.7 km/h 2.3 mph /  3.7 km/h 75 % 0 in /  0.0 mm
23:35 55.9 °F /  13.3 °C 47.5 °F /  8.6 °C 30.2 in /  1020.9 hPa WSW 1 mph /  1.6 km/h 4 mph /  6.4 km/h 73 % 0 in /  0.0 mm
23:37 57 °F /  13.9 °C 49.3 °F /  9.6 °C 30.1 in /  1019.9 hPa ENE 1.2 mph /  1.9 km/h 1.2 mph /  1.9 km/h 75 % 0 in /  0.0 mm
23:42 57 °F /  13.9 °C 49.3 °F /  9.6 °C 30.1 in /  1019.9 hPa Calm     75 % 0 in /  0.0 mm
23:45 55.8 °F /  13.2 °C 46.6 °F /  8.1 °C 30.2 in /  1021.9 hPa WSW 1 mph /  1.6 km/h 1 mph /  1.6 km/h 71 % 0 in /  0.0 mm
23:47 57 °F /  13.9 °C 49.3 °F /  9.6 °C 30.1 in /  1019.9 hPa ENE 1.2 mph /  1.9 km/h   75 % 0 in /  0.0 mm
23:52 57 °F /  13.9 °C 49.3 °F /  9.6 °C 30.1 in /  1019.9 hPa Calm     75 % 0 in /  0.0 mm
23:55 55.8 °F /  13.2 °C 46 °F /  7.8 °C 30.2 in /  1021.9 hPa NW 3 mph /  4.8 km/h 4 mph /  6.4 km/h 70 % 0 in /  0.0 mm
23:57 56.8 °F /  13.8 °C 48.9 °F /  9.4 °C 30.1 in /  1019.9 hPa Calm     75 % 0 in /  0.0 mm
Meteo Sesrovires
Elogis d' Weather Underground - 3.75 mb

Guio original per  Jim McMurry - jmcmurry@mwt.net Adaptat per a la plantilla per  Wim van der Kuil - Leuven-Template.eu

Trobareu la nostra informacio del temps tambe a:

Weather Underground

AWEKAS